createdAt,value
2018-12-31T00:01:10.745Z,9.90
2018-12-31T00:04:15.639Z,9.90
2018-12-31T00:05:32.056Z,9.90
2018-12-31T00:06:50.193Z,9.90
2018-12-31T00:08:06.911Z,9.90
2018-12-31T00:09:23.424Z,9.90
2018-12-31T00:10:39.837Z,9.90
2018-12-31T00:11:56.225Z,9.90
2018-12-31T00:13:12.575Z,9.90
2018-12-31T00:14:31.439Z,9.90
2018-12-31T00:15:51.116Z,9.90
2018-12-31T00:18:28.539Z,10.00
2018-12-31T00:19:44.748Z,10.00
2018-12-31T00:21:00.949Z,10.00
2018-12-31T00:22:17.313Z,10.00
2018-12-31T00:23:33.370Z,10.00
2018-12-31T00:24:50.784Z,10.00
2018-12-31T00:26:11.708Z,10.00
2018-12-31T00:27:26.970Z,10.00
2018-12-31T00:30:44.583Z,10.00
2018-12-31T00:32:03.830Z,10.00
2018-12-31T00:33:20.202Z,10.30
2018-12-31T00:34:36.325Z,10.00
2018-12-31T00:35:52.768Z,10.00
2018-12-31T00:37:09.015Z,10.00
2018-12-31T00:38:25.737Z,10.10
2018-12-31T00:39:42.279Z,10.00
2018-12-31T00:40:59.579Z,10.10
2018-12-31T00:42:16.513Z,10.10
2018-12-31T00:43:32.947Z,10.10
2018-12-31T00:44:49.994Z,10.10
2018-12-31T00:46:06.975Z,10.10
2018-12-31T00:47:23.331Z,10.10
2018-12-31T00:48:39.549Z,10.10
2018-12-31T00:49:55.804Z,10.10
2018-12-31T00:51:12.753Z,10.10
2018-12-31T00:52:28.980Z,10.10
2018-12-31T00:53:45.554Z,10.10
2018-12-31T00:55:02.124Z,10.30
2018-12-31T00:56:18.289Z,10.10
2018-12-31T00:57:34.598Z,10.10
2018-12-31T00:58:51.040Z,10.10
2018-12-31T01:00:08.003Z,10.20
2018-12-31T01:01:23.192Z,10.60
2018-12-31T01:03:06.015Z,10.00
2018-12-31T01:04:22.803Z,10.60
2018-12-31T01:05:39.826Z,10.10
2018-12-31T01:06:56.030Z,10.90
2018-12-31T01:08:12.726Z,10.20
2018-12-31T01:09:29.768Z,10.20
2018-12-31T01:10:46.420Z,10.70
2018-12-31T01:12:03.390Z,10.20
2018-12-31T01:13:19.606Z,10.70
2018-12-31T01:14:38.236Z,10.10
2018-12-31T01:15:55.239Z,10.10
2018-12-31T01:17:12.320Z,10.20
2018-12-31T01:18:29.404Z,10.20
2018-12-31T01:19:46.372Z,10.20
2018-12-31T01:21:02.743Z,10.80
2018-12-31T01:22:19.043Z,10.20
2018-12-31T01:23:35.496Z,10.10
2018-12-31T01:24:54.098Z,10.10
2018-12-31T01:26:11.137Z,9.90
2018-12-31T01:28:42.216Z,10.00
2018-12-31T01:29:59.152Z,10.00
2018-12-31T01:36:28.673Z,10.20
2018-12-31T01:37:45.671Z,10.20
2018-12-31T01:39:02.370Z,10.30
2018-12-31T01:40:19.307Z,10.20
2018-12-31T01:41:36.012Z,10.20
2018-12-31T01:42:53.268Z,10.20
2018-12-31T01:44:09.676Z,10.20
2018-12-31T01:45:26.630Z,10.20
2018-12-31T01:46:42.911Z,10.20
2018-12-31T01:47:59.267Z,10.20
2018-12-31T01:49:15.415Z,10.20
2018-12-31T01:50:32.157Z,10.20
2018-12-31T01:51:49.445Z,10.30
2018-12-31T01:53:05.831Z,10.20
2018-12-31T01:54:23.113Z,10.20
2018-12-31T01:55:40.172Z,10.10
2018-12-31T01:56:56.305Z,10.10
2018-12-31T01:58:13.168Z,10.10
2018-12-31T01:59:30.184Z,10.10
2018-12-31T02:00:46.886Z,10.20
2018-12-31T02:02:05.111Z,10.20
2018-12-31T02:03:21.815Z,10.20
2018-12-31T02:04:38.070Z,10.10
2018-12-31T02:05:54.841Z,10.10
2018-12-31T02:07:11.238Z,10.10
2018-12-31T02:08:28.173Z,10.20
2018-12-31T02:09:44.312Z,10.20
2018-12-31T02:11:00.653Z,10.20
2018-12-31T02:12:16.880Z,10.10
2018-12-31T02:13:32.336Z,10.10
2018-12-31T02:16:23.012Z,10.20
2018-12-31T02:17:39.833Z,10.20
2018-12-31T02:18:56.097Z,10.20
2018-12-31T02:20:12.262Z,10.10
2018-12-31T02:21:28.501Z,10.10
2018-12-31T02:22:44.853Z,10.10
2018-12-31T02:24:01.275Z,10.20
2018-12-31T02:25:17.517Z,10.20
2018-12-31T02:26:34.449Z,10.20
2018-12-31T02:27:49.806Z,10.20
2018-12-31T02:30:50.610Z,10.20
2018-12-31T02:32:06.936Z,10.20
2018-12-31T02:33:23.392Z,10.20
2018-12-31T02:34:39.664Z,10.30
2018-12-31T02:35:58.848Z,10.20
2018-12-31T02:37:17.921Z,10.20
2018-12-31T02:38:34.648Z,10.20
2018-12-31T02:39:51.420Z,10.20
2018-12-31T02:41:07.604Z,10.20
2018-12-31T02:42:24.019Z,10.20
2018-12-31T02:43:41.118Z,10.20
2018-12-31T02:44:57.157Z,10.20
2018-12-31T02:46:13.978Z,10.20
2018-12-31T02:47:30.304Z,10.20
2018-12-31T02:48:47.817Z,10.30
2018-12-31T02:56:34.669Z,10.50
2018-12-31T02:57:51.120Z,10.50
2018-12-31T02:59:07.290Z,10.40
2018-12-31T03:00:24.585Z,10.30
2018-12-31T03:01:41.565Z,10.30
2018-12-31T03:02:57.755Z,10.30
2018-12-31T03:04:16.929Z,10.30
2018-12-31T03:05:34.132Z,10.20
2018-12-31T03:06:51.064Z,10.30
2018-12-31T03:08:07.944Z,10.30
2018-12-31T03:09:23.981Z,10.30
2018-12-31T03:10:40.999Z,10.30
2018-12-31T03:11:57.333Z,10.30
2018-12-31T03:13:13.376Z,10.20
2018-12-31T03:14:30.306Z,10.30
2018-12-31T03:15:46.853Z,10.30
2018-12-31T03:17:04.047Z,10.30
2018-12-31T03:18:20.426Z,10.30
2018-12-31T03:19:36.831Z,10.30
2018-12-31T03:20:53.093Z,10.30
2018-12-31T03:22:09.617Z,10.20
2018-12-31T03:23:25.860Z,10.20
2018-12-31T03:24:42.936Z,10.20
2018-12-31T03:25:59.066Z,10.20
2018-12-31T03:27:15.465Z,10.20
2018-12-31T03:28:31.798Z,10.20
2018-12-31T03:29:48.085Z,10.20
2018-12-31T03:31:06.078Z,10.20
2018-12-31T03:32:23.175Z,10.10
2018-12-31T03:33:40.270Z,10.20
2018-12-31T03:34:57.403Z,10.20
2018-12-31T03:36:15.770Z,10.20
2018-12-31T03:37:31.446Z,10.20
2018-12-31T03:40:32.355Z,10.20
2018-12-31T03:41:48.457Z,10.10
2018-12-31T03:43:05.030Z,10.20
2018-12-31T03:44:27.173Z,10.20
2018-12-31T03:45:44.143Z,10.10
2018-12-31T03:47:01.272Z,10.20
2018-12-31T03:48:18.356Z,10.20
2018-12-31T03:49:34.644Z,10.30
2018-12-31T03:50:52.065Z,10.30
2018-12-31T03:52:09.043Z,10.30
2018-12-31T03:53:25.354Z,10.30
2018-12-31T03:54:41.842Z,10.30
2018-12-31T03:55:58.977Z,10.30
2018-12-31T03:57:15.365Z,10.30
2018-12-31T03:58:31.722Z,10.20
2018-12-31T03:59:48.006Z,10.20
2018-12-31T04:01:04.626Z,10.20
2018-12-31T04:02:21.660Z,10.20
2018-12-31T04:03:38.135Z,10.20
2018-12-31T04:04:54.667Z,10.30
2018-12-31T04:06:12.859Z,10.30
2018-12-31T04:07:31.855Z,10.30
2018-12-31T04:08:48.301Z,10.30
2018-12-31T04:10:04.407Z,10.30
2018-12-31T04:11:20.625Z,10.30
2018-12-31T04:12:37.109Z,10.20
2018-12-31T04:13:53.613Z,10.30
2018-12-31T04:15:10.043Z,10.30
2018-12-31T04:16:26.414Z,10.30
2018-12-31T04:17:43.545Z,10.30
2018-12-31T04:19:03.844Z,10.30
2018-12-31T04:20:20.700Z,10.30
2018-12-31T04:21:37.580Z,10.20
2018-12-31T04:22:54.538Z,10.20
2018-12-31T04:24:11.924Z,10.20
2018-12-31T04:25:30.354Z,10.30
2018-12-31T04:26:46.901Z,10.30
2018-12-31T04:28:04.077Z,10.30
2018-12-31T04:29:21.224Z,10.20
2018-12-31T04:30:38.328Z,10.20
2018-12-31T04:31:55.418Z,10.20
2018-12-31T04:33:12.069Z,10.20
2018-12-31T04:34:29.197Z,10.30
2018-12-31T04:35:45.591Z,10.30
2018-12-31T04:37:01.991Z,10.30
2018-12-31T04:38:18.233Z,10.30
2018-12-31T04:39:35.763Z,10.30
2018-12-31T04:40:52.855Z,10.30
2018-12-31T04:42:09.838Z,10.30
2018-12-31T04:43:26.083Z,10.30
2018-12-31T04:44:42.147Z,10.20
2018-12-31T04:45:58.180Z,10.20
2018-12-31T04:47:14.671Z,10.30
2018-12-31T04:48:30.973Z,10.30
2018-12-31T04:49:48.002Z,10.30
2018-12-31T04:51:04.482Z,10.30
2018-12-31T04:53:45.443Z,10.40
2018-12-31T04:55:02.637Z,10.30
2018-12-31T04:56:18.885Z,10.30
2018-12-31T04:57:35.057Z,10.30
2018-12-31T04:58:54.508Z,10.30
2018-12-31T05:00:10.669Z,10.30
2018-12-31T05:01:27.648Z,10.30
2018-12-31T05:02:44.401Z,10.30
2018-12-31T05:04:00.605Z,10.40
2018-12-31T05:05:17.196Z,10.30
2018-12-31T05:06:33.586Z,10.40
2018-12-31T05:07:50.663Z,10.30
2018-12-31T05:18:06.534Z,10.40
2018-12-31T05:49:05.615Z,10.40
2018-12-31T05:50:16.792Z,10.40
2018-12-31T05:51:26.309Z,10.40
2018-12-31T05:52:34.051Z,10.40
2018-12-31T05:55:34.739Z,10.40
2018-12-31T05:56:51.775Z,10.40
2018-12-31T05:58:07.971Z,10.60
2018-12-31T05:59:24.244Z,10.50
2018-12-31T06:00:43.976Z,10.50
2018-12-31T06:02:04.732Z,10.50
2018-12-31T06:03:22.018Z,10.40
2018-12-31T06:04:38.438Z,10.40
2018-12-31T06:05:57.814Z,10.30
2018-12-31T06:07:16.911Z,10.30
2018-12-31T06:08:34.338Z,10.30
2018-12-31T06:09:58.042Z,10.30
2018-12-31T06:11:08.917Z,10.30
2018-12-31T06:12:44.739Z,10.30
2018-12-31T06:14:02.963Z,10.30
2018-12-31T06:15:19.471Z,10.30
2018-12-31T06:16:35.721Z,10.20
2018-12-31T06:17:52.889Z,10.30
2018-12-31T06:19:09.275Z,10.20
2018-12-31T06:20:25.597Z,10.30
2018-12-31T06:21:41.798Z,10.30
2018-12-31T06:22:58.489Z,10.20
2018-12-31T06:24:15.440Z,10.20
2018-12-31T06:25:32.027Z,10.20
2018-12-31T06:26:47.721Z,10.20
2018-12-31T06:28:11.896Z,10.20
2018-12-31T06:29:28.042Z,10.20
2018-12-31T06:30:44.389Z,10.20
2018-12-31T06:32:00.656Z,10.20
2018-12-31T06:33:17.194Z,10.30
2018-12-31T06:34:33.308Z,10.30
2018-12-31T06:35:49.761Z,10.20
2018-12-31T06:37:06.399Z,10.30
2018-12-31T06:38:22.938Z,10.30
2018-12-31T06:39:39.255Z,10.30
2018-12-31T06:40:58.396Z,10.30
2018-12-31T06:42:15.863Z,10.30
2018-12-31T06:43:35.751Z,10.30
2018-12-31T06:44:53.273Z,10.40
2018-12-31T06:46:11.086Z,10.30
2018-12-31T06:47:33.573Z,10.30
2018-12-31T06:48:52.111Z,10.20
2018-12-31T06:50:09.009Z,10.30
2018-12-31T06:51:26.389Z,10.40
2018-12-31T06:52:42.906Z,10.30
2018-12-31T06:54:00.317Z,10.30
2018-12-31T06:55:17.542Z,10.40
2018-12-31T07:00:01.003Z,10.30
2018-12-31T07:01:18.291Z,10.40
2018-12-31T07:02:35.437Z,10.30
2018-12-31T07:03:52.074Z,10.40
2018-12-31T07:05:16.370Z,10.40
2018-12-31T07:06:40.958Z,10.40
2018-12-31T07:07:57.851Z,10.40
2018-12-31T07:10:35.743Z,10.50
2018-12-31T07:11:49.786Z,10.50
2018-12-31T07:13:06.533Z,10.50
2018-12-31T07:14:42.567Z,10.50
2018-12-31T07:16:18.688Z,10.50
2018-12-31T07:17:37.678Z,10.50
2018-12-31T07:18:54.095Z,10.50
2018-12-31T07:20:11.283Z,10.50
2018-12-31T07:21:28.285Z,10.50
2018-12-31T07:22:45.282Z,10.60
2018-12-31T07:24:02.066Z,10.60
2018-12-31T07:25:18.701Z,10.50
2018-12-31T07:26:34.953Z,10.40
2018-12-31T07:27:51.916Z,10.40
2018-12-31T07:29:08.437Z,10.40
2018-12-31T07:30:25.012Z,10.40
2018-12-31T07:31:41.248Z,10.40
2018-12-31T07:33:01.802Z,10.60
2018-12-31T07:34:19.823Z,10.40
2018-12-31T07:35:37.153Z,10.40
2018-12-31T07:36:56.857Z,10.40
2018-12-31T07:38:13.073Z,10.40
2018-12-31T07:39:30.022Z,10.30
2018-12-31T07:40:47.125Z,10.40
2018-12-31T07:42:03.490Z,10.40
2018-12-31T07:43:21.508Z,10.50
2018-12-31T07:44:39.509Z,10.40
2018-12-31T07:45:56.361Z,10.50
2018-12-31T07:47:12.622Z,10.40
2018-12-31T07:48:29.125Z,10.40
2018-12-31T07:49:46.200Z,10.40
2018-12-31T07:51:02.715Z,10.40
2018-12-31T07:52:19.224Z,10.50
2018-12-31T07:53:35.898Z,10.50
2018-12-31T07:54:52.963Z,10.40
2018-12-31T07:56:10.851Z,10.40
2018-12-31T07:57:27.828Z,10.50
2018-12-31T07:58:45.918Z,10.40
2018-12-31T08:00:05.120Z,10.50
2018-12-31T08:01:23.128Z,10.50
2018-12-31T08:02:40.657Z,10.50
2018-12-31T08:03:58.440Z,10.50
2018-12-31T08:05:16.675Z,10.50
2018-12-31T08:06:36.801Z,10.50
2018-12-31T08:07:56.963Z,10.70
2018-12-31T08:09:14.653Z,10.60
2018-12-31T08:10:31.168Z,10.60
2018-12-31T08:11:48.643Z,10.70
2018-12-31T08:13:05.626Z,10.60
2018-12-31T08:14:24.941Z,10.60
2018-12-31T08:15:42.226Z,10.60
2018-12-31T08:17:00.798Z,10.50
2018-12-31T08:18:17.861Z,10.50
2018-12-31T08:19:38.271Z,10.50
2018-12-31T08:20:57.048Z,10.50
2018-12-31T08:22:16.497Z,10.60
2018-12-31T08:23:35.015Z,10.60
2018-12-31T08:24:51.685Z,10.60
2018-12-31T08:26:08.594Z,10.60
2018-12-31T08:27:25.869Z,10.60
2018-12-31T08:28:44.998Z,10.60
2018-12-31T08:30:01.607Z,10.60
2018-12-31T08:31:22.378Z,10.60
2018-12-31T08:32:39.180Z,10.60
2018-12-31T08:33:58.012Z,10.60
2018-12-31T08:35:14.606Z,10.60
2018-12-31T08:38:16.655Z,10.60
2018-12-31T08:41:17.207Z,10.60
2018-12-31T08:43:55.665Z,10.60
2018-12-31T08:45:16.149Z,10.60
2018-12-31T08:46:35.286Z,10.70
2018-12-31T08:47:53.924Z,10.70
2018-12-31T08:49:11.378Z,10.60
2018-12-31T08:50:30.223Z,10.70
2018-12-31T08:51:49.700Z,10.70
2018-12-31T08:54:52.424Z,10.70
2018-12-31T08:56:11.997Z,10.70
2018-12-31T08:58:08.459Z,10.60
2018-12-31T08:59:41.052Z,10.60
2018-12-31T09:00:58.350Z,10.60
2018-12-31T09:02:17.824Z,10.70
2018-12-31T09:03:39.497Z,10.70
2018-12-31T09:04:59.840Z,10.70
2018-12-31T09:06:16.726Z,10.70
2018-12-31T09:07:32.903Z,10.70
2018-12-31T09:08:38.288Z,10.70
2018-12-31T09:09:43.760Z,10.70
2018-12-31T09:10:50.901Z,10.70
2018-12-31T09:12:04.226Z,11.20
2018-12-31T09:13:10.869Z,10.70
2018-12-31T09:14:19.866Z,10.70
2018-12-31T09:15:26.015Z,10.70
2018-12-31T09:16:40.361Z,10.70
2018-12-31T09:18:05.184Z,10.70
2018-12-31T09:20:58.583Z,10.70
2018-12-31T09:22:15.811Z,10.70
2018-12-31T09:23:32.356Z,10.70
2018-12-31T09:24:49.531Z,10.70
2018-12-31T09:26:09.372Z,10.60
2018-12-31T09:27:25.758Z,10.70
2018-12-31T09:29:58.194Z,10.60
2018-12-31T09:31:19.075Z,10.70
2018-12-31T09:34:19.403Z,10.70
2018-12-31T09:35:37.306Z,10.70
2018-12-31T09:36:54.975Z,10.70
2018-12-31T09:38:11.930Z,10.70
2018-12-31T09:39:30.424Z,10.70
2018-12-31T09:40:49.291Z,10.70
2018-12-31T09:43:23.356Z,10.70
2018-12-31T09:44:40.558Z,10.70
2018-12-31T09:45:58.903Z,10.70
2018-12-31T09:47:15.647Z,10.70
2018-12-31T09:48:35.378Z,10.70
2018-12-31T09:49:51.803Z,10.60
2018-12-31T09:51:08.813Z,10.70
2018-12-31T09:52:25.066Z,10.70
2018-12-31T09:53:44.042Z,10.70
2018-12-31T09:55:00.711Z,10.70
2018-12-31T09:58:20.961Z,10.70
2018-12-31T09:59:55.538Z,10.70
2018-12-31T10:01:02.761Z,10.70
2018-12-31T10:02:22.143Z,10.70
2018-12-31T10:05:00.593Z,10.70
2018-12-31T10:06:17.082Z,10.70
2018-12-31T10:07:35.137Z,10.70
2018-12-31T10:09:18.668Z,10.70
2018-12-31T10:10:23.505Z,10.70
2018-12-31T10:11:41.263Z,10.70
2018-12-31T10:12:58.353Z,10.70
2018-12-31T10:14:15.956Z,10.70
2018-12-31T10:15:37.341Z,10.70
2018-12-31T10:16:55.898Z,10.80
2018-12-31T10:18:13.168Z,10.80
2018-12-31T10:19:32.367Z,10.80
2018-12-31T10:20:48.573Z,10.80
2018-12-31T10:22:05.239Z,10.80
2018-12-31T10:23:26.699Z,10.80
2018-12-31T10:24:43.712Z,10.70
2018-12-31T10:26:00.941Z,10.80
2018-12-31T10:30:55.776Z,10.80
2018-12-31T10:32:12.022Z,10.80
2018-12-31T10:33:28.700Z,10.80
2018-12-31T10:34:48.114Z,10.80
2018-12-31T10:36:04.542Z,10.80
2018-12-31T10:37:21.268Z,10.80
2018-12-31T10:38:41.012Z,10.80
2018-12-31T10:39:57.689Z,10.80
2018-12-31T10:41:14.279Z,10.80
2018-12-31T10:42:31.568Z,10.80
2018-12-31T10:43:49.183Z,10.80
2018-12-31T10:45:05.569Z,10.80
2018-12-31T10:46:22.589Z,10.80
2018-12-31T10:47:39.667Z,10.80
2018-12-31T10:48:56.159Z,10.80
2018-12-31T10:50:13.718Z,11.00
2018-12-31T10:51:29.716Z,10.80
2018-12-31T10:52:46.798Z,10.80
2018-12-31T10:54:03.290Z,10.80
2018-12-31T10:55:22.930Z,10.80
2018-12-31T10:56:39.454Z,10.80
2018-12-31T10:57:55.829Z,10.80
2018-12-31T10:59:12.322Z,10.80
2018-12-31T11:00:28.912Z,10.80
2018-12-31T11:01:46.606Z,10.80
2018-12-31T11:03:03.641Z,10.80
2018-12-31T11:04:24.295Z,10.80
2018-12-31T11:05:40.870Z,10.90
2018-12-31T11:06:57.361Z,10.90
2018-12-31T11:08:13.077Z,10.80
2018-12-31T11:09:33.977Z,10.80
2018-12-31T11:10:52.061Z,10.80
2018-12-31T11:12:08.704Z,10.80
2018-12-31T11:13:25.491Z,10.80
2018-12-31T11:15:03.088Z,10.80
2018-12-31T11:16:09.050Z,10.80
2018-12-31T11:17:26.078Z,10.80
2018-12-31T11:18:43.362Z,10.80
2018-12-31T11:19:59.916Z,10.80
2018-12-31T11:21:16.321Z,10.80
2018-12-31T11:22:33.726Z,10.80
2018-12-31T11:23:50.916Z,10.80
2018-12-31T11:25:08.125Z,10.80
2018-12-31T11:28:02.371Z,10.80
2018-12-31T11:29:18.638Z,10.80
2018-12-31T11:30:34.872Z,10.80
2018-12-31T11:31:51.173Z,10.80
2018-12-31T11:33:08.418Z,10.80
2018-12-31T11:34:27.309Z,10.80
2018-12-31T11:35:44.865Z,10.80
2018-12-31T11:37:01.917Z,10.90
2018-12-31T11:38:46.655Z,10.90
2018-12-31T11:41:49.195Z,10.80
2018-12-31T11:43:05.763Z,10.80
2018-12-31T11:44:21.893Z,10.90
2018-12-31T11:45:38.527Z,10.90
2018-12-31T11:46:57.226Z,10.80
2018-12-31T11:48:14.489Z,10.90
2018-12-31T11:49:31.915Z,10.80
2018-12-31T11:50:56.599Z,10.90
2018-12-31T11:52:15.980Z,10.90
2018-12-31T11:53:32.879Z,10.90
2018-12-31T11:54:49.588Z,10.90
2018-12-31T11:56:06.289Z,10.90
2018-12-31T11:57:24.081Z,10.90
2018-12-31T11:58:41.068Z,10.90
2018-12-31T11:59:57.752Z,10.90
2018-12-31T12:01:17.289Z,10.90
2018-12-31T12:02:35.471Z,10.90
2018-12-31T12:03:52.552Z,10.90
2018-12-31T12:05:09.185Z,10.90
2018-12-31T12:06:25.545Z,10.90
2018-12-31T12:07:42.017Z,10.90
2018-12-31T12:08:57.355Z,10.90
2018-12-31T12:10:14.214Z,10.90
2018-12-31T12:11:32.574Z,10.90
2018-12-31T12:12:52.616Z,10.90
2018-12-31T12:14:08.816Z,10.90
2018-12-31T12:17:09.432Z,10.90
2018-12-31T12:18:26.747Z,11.00
2018-12-31T12:20:28.320Z,10.90
2018-12-31T12:21:17.061Z,10.90
2018-12-31T12:22:41.278Z,10.90
2018-12-31T12:27:29.010Z,10.90
2018-12-31T12:29:07.842Z,10.90
2018-12-31T12:30:13.886Z,10.90
2018-12-31T12:31:31.527Z,10.90
2018-12-31T12:33:07.000Z,10.90
2018-12-31T12:34:23.623Z,10.90
2018-12-31T12:35:40.377Z,10.90
2018-12-31T12:39:58.609Z,10.90
2018-12-31T12:41:15.024Z,10.90
2018-12-31T12:42:35.530Z,10.90
2018-12-31T12:43:53.150Z,10.90
2018-12-31T12:46:55.867Z,10.90
2018-12-31T12:48:12.521Z,10.90
2018-12-31T12:49:32.306Z,10.90
2018-12-31T12:50:49.044Z,10.90
2018-12-31T12:52:06.314Z,10.80
2018-12-31T12:53:23.299Z,10.80
2018-12-31T12:54:41.853Z,10.90
2018-12-31T12:55:58.865Z,10.90
2018-12-31T12:57:15.165Z,10.90
2018-12-31T12:58:33.082Z,10.90
2018-12-31T12:59:49.802Z,10.90
2018-12-31T13:01:07.221Z,10.90
2018-12-31T13:02:56.485Z,10.90
2018-12-31T13:03:58.713Z,11.10
2018-12-31T13:05:39.391Z,10.80
2018-12-31T13:06:56.041Z,10.80
2018-12-31T13:08:15.709Z,10.90
2018-12-31T13:09:34.638Z,11.00
2018-12-31T13:12:40.336Z,10.90
2018-12-31T13:16:00.828Z,11.00
2018-12-31T13:17:22.135Z,10.90
2018-12-31T13:18:31.039Z,10.90
2018-12-31T13:19:48.241Z,11.00
2018-12-31T13:21:05.844Z,11.00
2018-12-31T13:22:23.762Z,10.90
2018-12-31T13:23:54.288Z,10.90
2018-12-31T13:25:15.834Z,10.90
2018-12-31T13:28:16.640Z,10.90
2018-12-31T13:29:34.766Z,11.00
2018-12-31T13:30:51.856Z,11.00
2018-12-31T13:32:08.596Z,11.00
2018-12-31T13:33:44.836Z,11.00
2018-12-31T13:35:02.075Z,11.00
2018-12-31T13:36:19.198Z,10.90
2018-12-31T13:37:36.723Z,10.90
2018-12-31T13:38:53.292Z,11.50
2018-12-31T13:40:10.265Z,10.90
2018-12-31T13:41:27.132Z,10.90
2018-12-31T13:42:43.338Z,10.90
2018-12-31T13:44:02.197Z,10.90
2018-12-31T13:45:19.994Z,11.00
2018-12-31T13:46:37.029Z,10.90
2018-12-31T13:47:54.302Z,10.90
2018-12-31T13:49:11.682Z,10.90
2018-12-31T13:50:29.271Z,10.90
2018-12-31T13:51:49.152Z,10.90
2018-12-31T13:53:07.208Z,10.90
2018-12-31T13:54:24.225Z,10.90
2018-12-31T13:55:43.279Z,10.90
2018-12-31T13:57:01.747Z,11.00
2018-12-31T13:58:19.053Z,11.00
2018-12-31T13:59:36.199Z,11.00
2018-12-31T14:00:54.177Z,11.00
2018-12-31T14:02:11.855Z,11.00
2018-12-31T14:03:28.278Z,11.00
2018-12-31T14:04:45.385Z,11.00
2018-12-31T14:06:01.532Z,11.00
2018-12-31T14:09:00.786Z,11.00
2018-12-31T14:10:18.048Z,11.00
2018-12-31T14:13:28.831Z,11.00
2018-12-31T14:14:45.505Z,11.00
2018-12-31T14:16:05.400Z,11.00
2018-12-31T14:17:24.256Z,11.00
2018-12-31T14:18:43.059Z,11.10
2018-12-31T14:20:02.268Z,11.00
2018-12-31T14:21:18.733Z,11.00
2018-12-31T14:24:18.255Z,11.00
2018-12-31T14:25:23.788Z,11.00
2018-12-31T14:26:29.400Z,11.00
2018-12-31T14:27:39.024Z,11.00
2018-12-31T14:28:46.434Z,11.00
2018-12-31T14:29:53.638Z,10.90
2018-12-31T14:31:04.384Z,10.90
2018-12-31T14:32:10.209Z,11.00
2018-12-31T14:33:16.859Z,10.90
2018-12-31T14:34:22.774Z,11.00
2018-12-31T14:39:12.051Z,11.00
2018-12-31T14:40:28.341Z,11.00
2018-12-31T14:41:44.745Z,11.00
2018-12-31T14:43:01.264Z,11.00
2018-12-31T14:44:20.056Z,10.90
2018-12-31T14:45:37.384Z,11.00
2018-12-31T14:46:55.039Z,11.00
2018-12-31T14:48:12.414Z,11.00
2018-12-31T14:49:31.709Z,10.90
2018-12-31T14:50:48.938Z,10.90
2018-12-31T14:52:06.152Z,10.90
2018-12-31T14:53:25.550Z,11.00
2018-12-31T14:54:45.513Z,11.00
2018-12-31T14:56:02.884Z,10.60
2018-12-31T14:57:19.605Z,11.00
2018-12-31T14:58:36.898Z,11.00
2018-12-31T14:59:54.812Z,11.00
2018-12-31T15:02:45.532Z,11.00
2018-12-31T15:04:02.825Z,11.10
2018-12-31T15:05:20.336Z,11.00
2018-12-31T15:06:37.047Z,11.00
2018-12-31T15:07:54.072Z,11.00
2018-12-31T15:11:16.103Z,11.00
2018-12-31T15:12:58.292Z,11.00
2018-12-31T15:14:15.600Z,11.00
2018-12-31T15:15:32.728Z,11.10
2018-12-31T15:16:49.083Z,11.00
2018-12-31T15:18:06.196Z,11.00
2018-12-31T15:19:22.482Z,11.00
2018-12-31T15:20:39.868Z,11.00
2018-12-31T15:21:56.841Z,11.00
2018-12-31T15:23:15.084Z,11.00
2018-12-31T15:24:32.638Z,11.00
2018-12-31T15:25:50.870Z,11.00
2018-12-31T15:27:08.314Z,11.00
2018-12-31T15:28:28.833Z,10.90
2018-12-31T15:29:47.984Z,10.90
2018-12-31T15:31:04.654Z,10.90
2018-12-31T15:32:21.201Z,10.90
2018-12-31T15:33:40.402Z,10.90
2018-12-31T15:35:01.050Z,10.90
2018-12-31T15:36:18.032Z,10.90
2018-12-31T15:37:35.496Z,10.90
2018-12-31T15:38:52.716Z,10.80
2018-12-31T15:40:10.793Z,10.90
2018-12-31T15:41:50.434Z,11.00
2018-12-31T15:42:51.543Z,11.00
2018-12-31T15:44:09.541Z,11.00
2018-12-31T15:45:27.064Z,11.00
2018-12-31T15:46:48.503Z,11.00
2018-12-31T15:48:06.409Z,11.00
2018-12-31T15:49:23.724Z,11.00
2018-12-31T15:50:44.857Z,11.00
2018-12-31T15:52:03.690Z,11.00
2018-12-31T15:53:21.289Z,11.00
2018-12-31T15:54:38.868Z,11.00
2018-12-31T15:55:58.666Z,10.90
2018-12-31T15:57:18.355Z,11.30
2018-12-31T15:58:34.565Z,10.90
2018-12-31T15:59:54.140Z,10.90
2018-12-31T16:01:32.006Z,10.80
2018-12-31T16:02:50.944Z,10.90
2018-12-31T16:05:31.208Z,10.40
2018-12-31T16:06:49.925Z,10.80
2018-12-31T16:08:10.652Z,10.90
2018-12-31T16:09:27.656Z,10.90
2018-12-31T16:11:04.567Z,10.90
2018-12-31T16:12:13.615Z,10.90
2018-12-31T16:13:28.309Z,10.90
2018-12-31T16:14:44.723Z,10.90
2018-12-31T16:16:04.399Z,10.80
2018-12-31T16:17:21.282Z,10.90
2018-12-31T16:18:38.471Z,10.90
2018-12-31T16:19:56.500Z,10.90
2018-12-31T16:21:13.290Z,10.90
2018-12-31T16:22:30.103Z,10.90
2018-12-31T16:23:48.934Z,10.90
2018-12-31T16:25:05.732Z,10.90
2018-12-31T16:27:48.604Z,10.90
2018-12-31T16:29:07.138Z,10.90
2018-12-31T16:30:28.236Z,11.00
2018-12-31T16:31:45.213Z,11.00
2018-12-31T16:33:01.610Z,11.00
2018-12-31T16:34:19.893Z,10.90
2018-12-31T16:35:36.855Z,11.00
2018-12-31T16:36:54.579Z,11.00
2018-12-31T16:38:25.678Z,11.00
2018-12-31T16:39:48.882Z,11.00
2018-12-31T16:42:27.684Z,10.90
2018-12-31T16:43:45.128Z,10.90
2018-12-31T16:45:02.614Z,10.90
2018-12-31T16:46:20.696Z,11.00
2018-12-31T16:47:40.052Z,10.90
2018-12-31T16:48:57.982Z,11.00
2018-12-31T16:50:40.786Z,10.90
2018-12-31T16:51:44.836Z,10.90
2018-12-31T16:53:01.435Z,11.00
2018-12-31T16:54:18.585Z,11.00
2018-12-31T16:55:38.906Z,11.00
2018-12-31T16:58:26.712Z,11.00
2018-12-31T16:59:45.713Z,11.00
2018-12-31T17:01:04.453Z,11.00
2018-12-31T17:02:25.014Z,10.90
2018-12-31T17:03:43.189Z,10.90
2018-12-31T17:05:00.291Z,10.90
2018-12-31T17:06:17.205Z,10.90
2018-12-31T17:07:33.745Z,10.90
2018-12-31T17:08:52.888Z,10.80
2018-12-31T17:10:09.388Z,10.90
2018-12-31T17:11:26.557Z,10.90
2018-12-31T17:12:43.713Z,10.90
2018-12-31T17:14:00.244Z,10.90
2018-12-31T17:15:17.439Z,10.80
2018-12-31T17:16:33.723Z,10.90
2018-12-31T17:17:51.209Z,10.90
2018-12-31T17:19:31.689Z,11.00
2018-12-31T17:20:27.883Z,11.00
2018-12-31T17:21:34.632Z,11.00
2018-12-31T17:22:41.938Z,11.90
2018-12-31T17:23:49.194Z,10.90
2018-12-31T17:24:57.908Z,10.90
2018-12-31T17:26:15.381Z,10.90
2018-12-31T17:27:20.657Z,10.90
2018-12-31T17:29:03.820Z,10.90
2018-12-31T17:30:23.773Z,10.90
2018-12-31T17:32:54.186Z,10.80
2018-12-31T17:34:11.757Z,10.90
2018-12-31T17:35:31.429Z,10.90
2018-12-31T17:36:48.901Z,10.80
2018-12-31T17:38:05.881Z,10.90
2018-12-31T17:39:22.603Z,10.90
2018-12-31T17:40:39.976Z,11.00
2018-12-31T17:41:57.312Z,10.90
2018-12-31T17:43:13.579Z,10.90
2018-12-31T17:44:31.098Z,11.00
2018-12-31T17:45:50.623Z,10.90
2018-12-31T17:47:07.852Z,10.90
2018-12-31T17:48:27.203Z,10.90
2018-12-31T17:49:44.842Z,10.90
2018-12-31T17:51:05.272Z,11.00
2018-12-31T17:54:04.283Z,11.00
2018-12-31T17:57:06.653Z,11.00
2018-12-31T17:58:25.268Z,11.00
2018-12-31T18:00:07.057Z,11.00
2018-12-31T18:01:06.865Z,11.00
2018-12-31T18:02:24.606Z,11.00
2018-12-31T18:03:43.284Z,11.10
2018-12-31T18:06:39.319Z,11.20
2018-12-31T18:08:16.275Z,11.20
2018-12-31T18:09:23.190Z,11.20
2018-12-31T18:10:55.189Z,11.20
2018-12-31T18:12:15.181Z,11.20
2018-12-31T18:13:42.327Z,11.20
2018-12-31T18:15:06.562Z,11.10
2018-12-31T18:16:18.972Z,11.10
2018-12-31T18:19:16.587Z,11.10
2018-12-31T18:20:27.389Z,11.10
2018-12-31T18:21:39.999Z,11.10
2018-12-31T18:23:16.596Z,11.00
2018-12-31T18:24:34.269Z,11.00
2018-12-31T18:25:53.807Z,11.10
2018-12-31T18:27:11.041Z,11.20
2018-12-31T18:28:29.932Z,11.10
2018-12-31T18:29:46.692Z,11.10
2018-12-31T18:31:03.449Z,11.00
2018-12-31T18:32:20.013Z,11.00
2018-12-31T18:33:38.673Z,10.90
2018-12-31T18:34:59.314Z,11.00
2018-12-31T18:36:18.126Z,11.00
2018-12-31T18:37:41.633Z,10.90
2018-12-31T18:38:53.624Z,11.00
2018-12-31T18:40:11.443Z,11.00
2018-12-31T18:41:33.254Z,11.00
2018-12-31T18:42:49.901Z,10.90
2018-12-31T18:44:09.529Z,10.90
2018-12-31T18:45:28.762Z,10.90
2018-12-31T18:46:45.521Z,10.90
2018-12-31T18:48:02.238Z,10.90
2018-12-31T18:49:17.978Z,11.00
2018-12-31T18:50:34.995Z,11.00
2018-12-31T18:51:53.396Z,10.90
2018-12-31T18:53:10.346Z,11.00
2018-12-31T18:54:26.659Z,11.00
2018-12-31T18:55:43.036Z,11.00
2018-12-31T18:57:01.960Z,10.90